KCLM/CLM METAR and TAF weather

Enter ICAO airport designator
Station Type Date Time Source
KCLM METAR 2020/07/10 14:53 UTC NOAA

KCLM 101453Z AUTO 29006KT 10SM OVC026 13/09 A3017 RMK AO2 SLP216 T01330094 51015


Station Type Date Time Source
KCLM Decoded METAR 2020/07/10 14:53 UTC NOAA

PORT ANGELES FAIRCHILD INTERNATIONAL , WA, United States (KCLM) 48-07N 123-30W 85M
Jul 10, 2020 - 10:53 AM EDT / 2020.07.10 1453 UTC
Wind: from the WNW (290 degrees) at 7 MPH (6 KT):0
Visibility: 10 mile(s):0
Sky conditions: overcast
Temperature: 55.9 F (13.3 C)
Dew Point: 48.9 F (9.4 C)
Relative Humidity: 77%
Pressure (altimeter): 30.17 in. Hg (1021 hPa)
Pressure tendency: 0.04 inches (1.5 hPa) higher than three hours ago
ob: KCLM 101453Z AUTO 29006KT 10SM OVC026 13/09 A3017 RMK AO2 SLP216 T01330094 51015
cycle: 15

Station Type Date Time Source
KCLM TAF 2020/07/10 12:22 UTC NOAA

TAF KCLM 101120Z 1012/1112 26007KT P6SM OVC025
FM101800 31005KT P6SM SCT030 SCT200
FM102100 33009KT P6SM SCT200
FM110300 29006KT P6SM SKC

Example: see airport list